Time;durP1;ratioP1;P1;durP2;ratioP2;P2;SDS_P1;SDS_P2;PMS_P1;PMS_P2;Temp;Humidity;BMP_temperature;BMP_pressure;BME280_temperature;BME280_humidity;BME280_pressure;Samples;Min_cycle;Max_cycle;Signal;HPM_P1;HPM_P2
2023/06/25 00:01:28;;;;;;;;;;;;;;;;;;5205370;22;19918;-83
2023/06/25 00:03:48;;;;;;;;;;;;;;;;;;5205203;22;19941;-83
2023/06/25 00:06:09;;;;;;;;;;;;;;;;;;5228139;22;19917;-83
2023/06/25 00:08:29;;;;;;;;;;;;;;;;;;5228081;22;19945;-83
2023/06/25 00:10:50;;;;;;;;;;;;;;;;;;5228121;22;19917;-83
2023/06/25 00:13:10;;;;;;;;;;;;;;;;;;5228072;22;19918;-83
2023/06/25 00:15:30;;;;;;;;;;;;;;;;;;5205217;22;19941;-83
2023/06/25 00:17:51;;;;;;;;;;;;;;;;;;5228113;22;19963;-83
2023/06/25 00:20:11;;;;;;;;;;;;;;;;;;5205068;22;19971;-83
2023/06/25 00:22:31;;;;;;;;;;;;;;;;;;5228206;22;19918;-83
2023/06/25 00:24:51;;;;;;;;;;;;;;;;;;5205151;22;20217;-83
2023/06/25 00:27:11;;;;;;;;;;;;;;;;;;5227982;22;19918;-83
2023/06/25 00:29:31;;;;;;;;;;;;;;;;;;5227947;22;20137;-83
2023/06/25 00:31:52;;;;;;;;;;;;;;;;;;5228068;22;19972;-83
2023/06/25 00:34:12;;;;;;;;;;;;;;;;;;5205068;22;19942;-83
2023/06/25 00:36:36;;;;;;;;;;;;;;;;;;5228025;22;19964;-83
2023/06/25 00:38:59;;;;;;;;;;;;;;;;;;5228119;22;20106;-83
2023/06/25 00:41:19;;;;;;;;;;;;;;;;;;5227938;22;20106;-83
2023/06/25 00:43:41;;;;;;;;;;;;;;;;;;5236559;22;19980;-83
2023/06/25 00:46:01;;;;;;;;;;;;;;;;;;5228070;22;19971;-83
2023/06/25 00:48:22;;;;;;;;;;;;;;;;;;5227916;22;19918;-84
2023/06/25 00:50:43;;;;;;;;;;;;;;;;;;5203260;22;19918;-83
2023/06/25 00:53:08;;;;;;;;;;;;;;;;;;5227959;22;20140;-83
2023/06/25 00:55:28;;;;;;;;;;;;;;;;;;5204983;22;20242;-83
2023/06/25 00:57:48;;;;;;;;;;;;;;;;;;5227921;22;20217;-83
2023/06/25 01:00:14;;;;;;;;;;;;;;;;;;5205029;22;20145;-84
2023/06/25 01:02:35;;;;;;;;;;;;;;;;;;5197294;22;19918;-55
2023/06/25 01:04:57;;;;;;;;;;;;;;;;;;5175730;23;19918;-55
2023/06/25 01:07:17;;;;;;;;;;;;;;;;;;5176224;23;20104;-56
2023/06/25 01:09:38;;;;;;;;;;;;;;;;;;5175503;23;20190;-55
2023/06/25 01:11:58;;;;;;;;;;;;;;;;;;5176350;23;20002;-55
2023/06/25 01:14:18;;;;;;;;;;;;;;;;;;5176261;23;19934;-55
2023/06/25 01:16:38;;;;;;;;;;;;;;;;;;5176303;23;19918;-55
2023/06/25 01:19:02;;;;;;;;;;;;;;;;;;5176398;23;19965;-55
2023/06/25 01:21:26;;;;;;;;;;;;;;;;;;5176275;23;19919;-55
2023/06/25 01:23:46;;;;;;;;;;;;;;;;;;5176260;23;19953;-56
2023/06/25 01:26:09;;;;;;;;;;;;;;;;;;5176362;23;19957;-55
2023/06/25 01:28:30;;;;;;;;;;;;;;;;;;5176184;23;19918;-55
2023/06/25 01:30:51;;;;;;;;;;;;;;;;;;5176317;23;19938;-56
2023/06/25 01:33:15;;;;;;;;;;;;;;;;;;5176338;23;20248;-55
2023/06/25 01:35:35;;;;;;;;;;;;;;;;;;5176363;23;19918;-55
2023/06/25 01:37:56;;;;;;;;;;;;;;;;;;5176193;23;20322;-55
2023/06/25 01:40:16;;;;;;;;;;;;;;;;;;5185498;22;19918;-56
2023/06/25 01:42:37;;;;;;;;;;;;;;;;;;5201682;22;19963;-56
2023/06/25 01:44:57;;;;;;;;;;;;;;;;;;5201570;22;19926;-56
2023/06/25 01:47:17;;;;;;;;;;;;;;;;;;5201524;22;19967;-55
2023/06/25 01:49:37;;;;;;;;;;;;;;;;;;5201540;22;19942;-55
2023/06/25 01:51:57;;;;;;;;;;;;;;;;;;5201634;22;19918;-55
2023/06/25 01:54:18;;;;;;;;;;;;;;;;;;5201484;22;19917;-56
2023/06/25 01:56:38;;;;;;;;;;;;;;;;;;5201595;22;20146;-56
2023/06/25 01:58:58;;;;;;;;;;;;;;;;;;5201551;22;19918;-55
2023/06/25 02:01:19;;;;;;;;;;;;;;;;;;5201510;22;19926;-55
2023/06/25 02:03:39;;;;;;;;;;;;;;;;;;5201536;22;20130;-56
2023/06/25 02:05:59;;;;;;;;;;;;;;;;;;5201656;22;19925;-56
2023/06/25 02:08:20;;;;;;;;;;;;;;;;;;5201352;22;19937;-55
2023/06/25 02:10:40;;;;;;;;;;;;;;;;;;5201549;22;19918;-55
2023/06/25 02:13:00;;;;;;;;;;;;;;;;;;5201497;22;19926;-56
2023/06/25 02:15:21;;;;;;;;;;;;;;;;;;5201487;22;20173;-55
2023/06/25 02:17:41;;;;;;;;;;;;;;;;;;5201497;22;19938;-55
2023/06/25 02:20:01;;;;;;;;;;;;;;;;;;5201600;22;20145;-55
2023/06/25 02:22:21;;;;;;;;;;;;;;;;;;5201353;22;19925;-55
2023/06/25 02:24:42;;;;;;;;;;;;;;;;;;5178635;22;19927;-55
2023/06/25 02:27:02;;;;;;;;;;;;;;;;;;5201407;22;19952;-55
2023/06/25 02:29:23;;;;;;;;;;;;;;;;;;5201429;22;19917;-56
2023/06/25 02:31:43;;;;;;;;;;;;;;;;;;5201404;22;19921;-56
2023/06/25 02:34:04;;;;;;;;;;;;;;;;;;5201417;22;19963;-55
2023/06/25 02:36:24;;;;;;;;;;;;;;;;;;5201501;22;20106;-55
2023/06/25 02:38:44;;;;;;;;;;;;;;;;;;5201333;22;20105;-55
2023/06/25 02:41:04;;;;;;;;;;;;;;;;;;5201195;22;19953;-56
2023/06/25 02:43:25;;;;;;;;;;;;;;;;;;5201448;22;19934;-55
2023/06/25 02:45:45;;;;;;;;;;;;;;;;;;5178613;22;19925;-55
2023/06/25 02:48:05;;;;;;;;;;;;;;;;;;5201158;22;20233;-55
2023/06/25 02:50:26;;;;;;;;;;;;;;;;;;5201329;22;19941;-55
2023/06/25 02:52:46;;;;;;;;;;;;;;;;;;5201335;22;19959;-55
2023/06/25 02:55:06;;;;;;;;;;;;;;;;;;5201271;22;19977;-55
2023/06/25 02:57:29;;;;;;;;;;;;;;;;;;5201338;22;19918;-55
2023/06/25 02:59:50;;;;;;;;;;;;;;;;;;5201259;22;19917;-55
2023/06/25 03:02:10;;;;;;;;;;;;;;;;;;5201261;22;20174;-56
2023/06/25 03:04:30;;;;;;;;;;;;;;;;;;5201164;22;19918;-55
2023/06/25 03:06:51;;;;;;;;;;;;;;;;;;5201314;22;19918;-55
2023/06/25 03:09:11;;;;;;;;;;;;;;;;;;5201056;22;19933;-55
2023/06/25 03:11:31;;;;;;;;;;;;;;;;;;5201180;22;19922;-56
2023/06/25 03:13:52;;;;;;;;;;;;;;;;;;5201244;22;20153;-55
2023/06/25 03:16:12;;;;;;;;;;;;;;;;;;5201071;22;19918;-56
2023/06/25 03:18:32;;;;;;;;;;;;;;;;;;5201120;22;19942;-55
2023/06/25 03:20:53;;;;;;;;;;;;;;;;;;5201135;22;19926;-55
2023/06/25 03:23:13;;;;;;;;;;;;;;;;;;5201108;22;19933;-55
2023/06/25 03:25:33;;;;;;;;;;;;;;;;;;5200974;22;19946;-55
2023/06/25 03:27:53;;;;;;;;;;;;;;;;;;5201140;22;19957;-55
2023/06/25 03:30:16;;;;;;;;;;;;;;;;;;5201066;22;19963;-55
2023/06/25 03:32:37;;;;;;;;;;;;;;;;;;5178284;22;19926;-55
2023/06/25 03:34:57;;;;;;;;;;;;;;;;;;5202132;22;19953;-56
2023/06/25 03:37:19;;;;;;;;;;;;;;;;;;5202201;22;19918;-55
2023/06/25 03:39:40;;;;;;;;;;;;;;;;;;5202013;22;19960;-55
2023/06/25 03:42:00;;;;;;;;;;;;;;;;;;5202044;22;20132;-55
2023/06/25 03:44:20;;;;;;;;;;;;;;;;;;5202124;22;19956;-55
2023/06/25 03:46:40;;;;;;;;;;;;;;;;;;5202095;22;19957;-56
2023/06/25 03:49:01;;;;;;;;;;;;;;;;;;5201912;22;19917;-55
2023/06/25 03:51:21;;;;;;;;;;;;;;;;;;5202099;22;19984;-55
2023/06/25 03:53:41;;;;;;;;;;;;;;;;;;5201955;22;19965;-56
2023/06/25 03:56:02;;;;;;;;;;;;;;;;;;5201951;22;19919;-55
2023/06/25 03:58:22;;;;;;;;;;;;;;;;;;5201988;22;19926;-56
2023/06/25 04:00:42;;;;;;;;;;;;;;;;;;5201995;22;19963;-55
2023/06/25 04:03:02;;;;;;;;;;;;;;;;;;5201929;22;19956;-55
2023/06/25 04:05:23;;;;;;;;;;;;;;;;;;5201993;22;20137;-55
2023/06/25 04:07:43;;;;;;;;;;;;;;;;;;5201967;22;20217;-55
2023/06/25 04:10:03;;;;;;;;;;;;;;;;;;5201810;22;19926;-55
2023/06/25 04:12:23;;;;;;;;;;;;;;;;;;5202303;22;19925;-58
2023/06/25 04:14:43;;;;;;;;;;;;;;;;;;5201976;22;19922;-55
2023/06/25 04:17:04;;;;;;;;;;;;;;;;;;5201882;22;19933;-55
2023/06/25 04:19:24;;;;;;;;;;;;;;;;;;5201846;22;20184;-55
2023/06/25 04:21:44;;;;;;;;;;;;;;;;;;5201943;22;20218;-55
2023/06/25 04:24:05;;;;;;;;;;;;;;;;;;5201959;22;19926;-55
2023/06/25 04:26:25;;;;;;;;;;;;;;;;;;5201770;22;20150;-56
2023/06/25 04:28:45;;;;;;;;;;;;;;;;;;5201881;22;19934;-55
2023/06/25 04:31:05;;;;;;;;;;;;;;;;;;5201904;22;19960;-55
2023/06/25 04:33:26;;;;;;;;;;;;;;;;;;5201786;22;19918;-55
2023/06/25 04:35:46;;;;;;;;;;;;;;;;;;5201839;22;20221;-55
2023/06/25 04:38:06;;;;;;;;;;;;;;;;;;5201901;22;19918;-55
2023/06/25 04:40:26;;;;;;;;;;;;;;;;;;5201711;22;20101;-55
2023/06/25 04:42:47;;;;;;;;;;;;;;;;;;5201766;22;19933;-55
2023/06/25 04:45:07;;;;;;;;;;;;;;;;;;5201764;22;19917;-55
2023/06/25 04:47:27;;;;;;;;;;;;;;;;;;5201820;22;19998;-55
2023/06/25 04:49:48;;;;;;;;;;;;;;;;;;5201736;22;19949;-55
2023/06/25 04:52:10;;;;;;;;;;;;;;;;;;5201798;22;19918;-55
2023/06/25 04:54:30;;;;;;;;;;;;;;;;;;5201749;22;20137;-56
2023/06/25 04:56:51;;;;;;;;;;;;;;;;;;5201597;22;19918;-55
2023/06/25 04:59:11;;;;;;;;;;;;;;;;;;5201817;22;20193;-55
2023/06/25 05:01:32;;;;;;;;;;;;;;;;;;5201681;22;20221;-55
2023/06/25 05:03:52;;;;;;;;;;;;;;;;;;5201625;22;20248;-55
2023/06/25 05:06:13;;;;;;;;;;;;;;;;;;5201754;22;19917;-55
2023/06/25 05:08:33;;;;;;;;;;;;;;;;;;5201653;22;20134;-55
2023/06/25 05:10:53;;;;;;;;;;;;;;;;;;5201629;22;19918;-55
2023/06/25 05:13:14;;;;;;;;;;;;;;;;;;5201691;22;19918;-55
2023/06/25 05:15:35;;;;;;;;;;;;;;;;;;5201888;22;19933;-55
2023/06/25 05:17:56;;;;;;;;;;;;;;;;;;5201664;22;19926;-56
2023/06/25 05:20:16;;;;;;;;;;;;;;;;;;5201729;22;19966;-54
2023/06/25 05:22:36;;;;;;;;;;;;;;;;;;5179038;22;19919;-55
2023/06/25 05:24:57;;;;;;;;;;;;;;;;;;5201683;22;19952;-55
2023/06/25 05:27:17;;;;;;;;;;;;;;;;;;5201623;22;19926;-55
2023/06/25 05:29:37;;;;;;;;;;;;;;;;;;5201617;22;19956;-55
2023/06/25 05:31:58;;;;;;;;;;;;;;;;;;5201655;22;19918;-55
2023/06/25 05:34:19;;;;;;;;;;;;;;;;;;5178868;22;19953;-55
2023/06/25 05:36:39;;;;;;;;;;;;;;;;;;5201640;22;19957;-55
2023/06/25 05:38:59;;;;;;;;;;;;;;;;;;5201696;22;19918;-55
2023/06/25 05:41:20;;;;;;;;;;;;;;;;;;5201513;22;20105;-55
2023/06/25 05:43:40;;;;;;;;;;;;;;;;;;5201599;22;19967;-55
2023/06/25 05:46:00;;;;;;;;;;;;;;;;;;5201619;22;19926;-56
2023/06/25 05:48:21;;;;;;;;;;;;;;;;;;5201488;22;20261;-55
2023/06/25 05:50:41;;;;;;;;;;;;;;;;;;5201554;22;20002;-55
2023/06/25 05:53:01;;;;;;;;;;;;;;;;;;5201644;22;20106;-55
2023/06/25 05:55:22;;;;;;;;;;;;;;;;;;5178222;22;19958;-55
2023/06/25 05:57:42;;;;;;;;;;;;;;;;;;5201465;22;19919;-55
2023/06/25 06:00:02;;;;;;;;;;;;;;;;;;5201612;22;19972;-55
2023/06/25 06:02:23;;;;;;;;;;;;;;;;;;5201522;22;20107;-55
2023/06/25 06:04:43;;;;;;;;;;;;;;;;;;5201322;22;19976;-56
2023/06/25 06:07:03;;;;;;;;;;;;;;;;;;5201536;22;20106;-56
2023/06/25 06:09:23;;;;;;;;;;;;;;;;;;5201452;22;19926;-56
2023/06/25 06:11:44;;;;;;;;;;;;;;;;;;5201397;22;20258;-55
2023/06/25 06:14:04;;;;;;;;;;;;;;;;;;5201408;22;19918;-55
2023/06/25 06:16:25;;;;;;;;;;;;;;;;;;5201594;22;19948;-56
2023/06/25 06:18:45;;;;;;;;;;;;;;;;;;5201412;22;20122;-56
2023/06/25 06:21:05;;;;;;;;;;;;;;;;;;5201387;22;20154;-56
2023/06/25 06:23:26;;;;;;;;;;;;;;;;;;5201466;22;19964;-55
2023/06/25 06:25:46;;;;;;;;;;;;;;;;;;5201484;22;19964;-56
2023/06/25 06:28:06;;;;;;;;;;;;;;;;;;5201466;22;19917;-55
2023/06/25 06:30:26;;;;;;;;;;;;;;;;;;5201536;22;19964;-56
2023/06/25 06:32:47;;;;;;;;;;;;;;;;;;5201421;22;19918;-55
2023/06/25 06:35:07;;;;;;;;;;;;;;;;;;5201344;22;19946;-56
2023/06/25 06:37:27;;;;;;;;;;;;;;;;;;5201438;22;20259;-58
2023/06/25 06:39:47;;;;;;;;;;;;;;;;;;5201326;22;19949;-57
2023/06/25 06:42:08;;;;;;;;;;;;;;;;;;5201571;22;19926;-57
2023/06/25 06:44:28;;;;;;;;;;;;;;;;;;5201382;22;19918;-57
2023/06/25 06:46:48;;;;;;;;;;;;;;;;;;5201531;22;19933;-58
2023/06/25 06:49:08;;;;;;;;;;;;;;;;;;5201289;22;19953;-58
2023/06/25 06:51:29;;;;;;;;;;;;;;;;;;5201425;22;19946;-57
2023/06/25 06:53:49;;;;;;;;;;;;;;;;;;5201562;22;19926;-57
2023/06/25 06:56:09;;;;;;;;;;;;;;;;;;5201404;22;19950;-57
2023/06/25 06:58:29;;;;;;;;;;;;;;;;;;5201283;22;19918;-57
2023/06/25 07:00:49;;;;;;;;;;;;;;;;;;5178713;22;20287;-57
2023/06/25 07:03:10;;;;;;;;;;;;;;;;;;5201397;22;19918;-58
2023/06/25 07:05:30;;;;;;;;;;;;;;;;;;5201312;22;19934;-58
2023/06/25 07:07:50;;;;;;;;;;;;;;;;;;5201419;22;20243;-58
2023/06/25 07:10:10;;;;;;;;;;;;;;;;;;5201216;22;19956;-58
2023/06/25 07:12:31;;;;;;;;;;;;;;;;;;5201210;22;19942;-57
2023/06/25 07:14:51;;;;;;;;;;;;;;;;;;5201292;22;19917;-57
2023/06/25 07:17:11;;;;;;;;;;;;;;;;;;5201251;22;19925;-58
2023/06/25 07:19:32;;;;;;;;;;;;;;;;;;5201185;22;20101;-57
2023/06/25 07:21:52;;;;;;;;;;;;;;;;;;5201399;22;19941;-57
2023/06/25 07:24:12;;;;;;;;;;;;;;;;;;5201337;22;19933;-57
2023/06/25 07:26:33;;;;;;;;;;;;;;;;;;5201217;22;19922;-57
2023/06/25 07:28:53;;;;;;;;;;;;;;;;;;5201087;22;19926;-59
2023/06/25 07:31:13;;;;;;;;;;;;;;;;;;5201285;22;19918;-57
2023/06/25 07:33:33;;;;;;;;;;;;;;;;;;5201258;22;20358;-57
2023/06/25 07:35:54;;;;;;;;;;;;;;;;;;5201058;22;19963;-58
2023/06/25 07:38:14;;;;;;;;;;;;;;;;;;5201111;22;20209;-57
2023/06/25 07:40:35;;;;;;;;;;;;;;;;;;5200979;22;19926;-58
2023/06/25 07:42:55;;;;;;;;;;;;;;;;;;5201022;22;19918;-58
2023/06/25 07:45:15;;;;;;;;;;;;;;;;;;5201095;22;19922;-58
2023/06/25 07:47:36;;;;;;;;;;;;;;;;;;5201053;22;19959;-58
2023/06/25 07:49:56;;;;;;;;;;;;;;;;;;5200757;22;19946;-58
2023/06/25 07:52:16;;;;;;;;;;;;;;;;;;5200918;22;20204;-58
2023/06/25 07:54:36;;;;;;;;;;;;;;;;;;5200958;22;19918;-58
2023/06/25 07:56:57;;;;;;;;;;;;;;;;;;5200794;22;19926;-58
2023/06/25 07:59:17;;;;;;;;;;;;;;;;;;5200945;22;20204;-58
2023/06/25 08:01:37;;;;;;;;;;;;;;;;;;5201033;22;20280;-57
2023/06/25 08:03:58;;;;;;;;;;;;;;;;;;5200824;22;20156;-58
2023/06/25 08:06:18;;;;;;;;;;;;;;;;;;5200853;22;20256;-58
2023/06/25 08:08:38;;;;;;;;;;;;;;;;;;5200796;22;19942;-58
2023/06/25 08:10:59;;;;;;;;;;;;;;;;;;5200776;22;19954;-58
2023/06/25 08:13:19;;;;;;;;;;;;;;;;;;5200683;22;19918;-57
2023/06/25 08:15:39;;;;;;;;;;;;;;;;;;5200820;22;19963;-58
2023/06/25 08:18:00;;;;;;;;;;;;;;;;;;5200773;22;19933;-58
2023/06/25 08:20:21;;;;;;;;;;;;;;;;;;5201867;22;19949;-58
2023/06/25 08:22:41;;;;;;;;;;;;;;;;;;5202020;22;20244;-58
2023/06/25 08:25:01;;;;;;;;;;;;;;;;;;5202212;22;19994;-58
2023/06/25 08:27:22;;;;;;;;;;;;;;;;;;5201947;22;19918;-58
2023/06/25 08:29:41;;;;;;;;;;;;;;;;;;5179104;22;19926;-58
2023/06/25 08:32:02;;;;;;;;;;;;;;;;;;5201960;22;19918;-58
2023/06/25 08:34:22;;;;;;;;;;;;;;;;;;5201861;22;19921;-58
2023/06/25 08:36:42;;;;;;;;;;;;;;;;;;5201879;22;19918;-58
2023/06/25 08:39:02;;;;;;;;;;;;;;;;;;5200805;22;20153;-58
2023/06/25 08:41:22;;;;;;;;;;;;;;;;;;5201066;22;19971;-58
2023/06/25 08:43:43;;;;;;;;;;;;;;;;;;5199182;22;20186;-57
2023/06/25 08:46:03;;;;;;;;;;;;;;;;;;5199718;22;20412;-57
2023/06/25 08:48:26;;;;;;;;;;;;;;;;;;5201263;22;20233;-56
2023/06/25 08:50:46;;;;;;;;;;;;;;;;;;5201443;22;19965;-56
2023/06/25 08:53:06;;;;;;;;;;;;;;;;;;5201741;22;19953;-57
2023/06/25 08:55:27;;;;;;;;;;;;;;;;;;5201789;22;19957;-56
2023/06/25 08:57:47;;;;;;;;;;;;;;;;;;5201801;22;20109;-56
2023/06/25 09:00:07;;;;;;;;;;;;;;;;;;5201641;22;19918;-56
2023/06/25 09:02:27;;;;;;;;;;;;;;;;;;5201911;22;20237;-56
2023/06/25 09:04:47;;;;;;;;;;;;;;;;;;5201821;22;19941;-56
2023/06/25 09:07:08;;;;;;;;;;;;;;;;;;5200896;22;19918;-57
2023/06/25 09:09:28;;;;;;;;;;;;;;;;;;5201186;22;20244;-57
2023/06/25 09:11:48;;;;;;;;;;;;;;;;;;5201617;22;19926;-57
2023/06/25 09:14:08;;;;;;;;;;;;;;;;;;5201789;22;19921;-57
2023/06/25 09:16:28;;;;;;;;;;;;;;;;;;5201793;22;19918;-56
2023/06/25 09:18:49;;;;;;;;;;;;;;;;;;5201613;22;20252;-56
2023/06/25 09:21:09;;;;;;;;;;;;;;;;;;5201477;22;19917;-57
2023/06/25 09:23:29;;;;;;;;;;;;;;;;;;5201672;22;19917;-57
2023/06/25 09:25:49;;;;;;;;;;;;;;;;;;5201737;22;19918;-56
2023/06/25 09:28:10;;;;;;;;;;;;;;;;;;5201562;22;20002;-57
2023/06/25 09:30:32;;;;;;;;;;;;;;;;;;5200794;22;20006;-57
2023/06/25 09:32:52;;;;;;;;;;;;;;;;;;5201679;22;19917;-57
2023/06/25 09:35:12;;;;;;;;;;;;;;;;;;5201465;22;19926;-56
2023/06/25 09:37:33;;;;;;;;;;;;;;;;;;5201556;22;19930;-57
2023/06/25 09:39:53;;;;;;;;;;;;;;;;;;5201561;22;19918;-56
2023/06/25 09:42:13;;;;;;;;;;;;;;;;;;5210143;22;19918;-56
2023/06/25 09:44:34;;;;;;;;;;;;;;;;;;5201545;22;20117;-57
2023/06/25 09:46:54;;;;;;;;;;;;;;;;;;5201687;22;19960;-57
2023/06/25 09:49:15;;;;;;;;;;;;;;;;;;5201503;22;19956;-57
2023/06/25 09:51:35;;;;;;;;;;;;;;;;;;5201423;22;19918;-61
2023/06/25 09:53:56;;;;;;;;;;;;;;;;;;5201575;22;19918;-59
2023/06/25 09:56:16;;;;;;;;;;;;;;;;;;5201552;22;20213;-59
2023/06/25 09:58:36;;;;;;;;;;;;;;;;;;5201571;22;19933;-59
2023/06/25 10:00:57;;;;;;;;;;;;;;;;;;5178935;22;19918;-60
2023/06/25 10:03:17;;;;;;;;;;;;;;;;;;5201638;22;19918;-59
2023/06/25 10:05:37;;;;;;;;;;;;;;;;;;5201615;22;19956;-59
2023/06/25 10:07:58;;;;;;;;;;;;;;;;;;5201580;22;19998;-59
2023/06/25 10:10:19;;;;;;;;;;;;;;;;;;5201597;22;20102;-59
2023/06/25 10:12:39;;;;;;;;;;;;;;;;;;5201627;22;19978;-59
2023/06/25 10:14:59;;;;;;;;;;;;;;;;;;5201674;22;19934;-59
2023/06/25 10:17:20;;;;;;;;;;;;;;;;;;5201584;22;19918;-59
2023/06/25 10:19:43;;;;;;;;;;;;;;;;;;5201523;22;20268;-59
2023/06/25 10:22:03;;;;;;;;;;;;;;;;;;5201633;22;19933;-59
2023/06/25 10:24:24;;;;;;;;;;;;;;;;;;5201432;22;19957;-58
2023/06/25 10:26:44;;;;;;;;;;;;;;;;;;5201561;22;19938;-59
2023/06/25 10:29:04;;;;;;;;;;;;;;;;;;5201305;22;20062;-59
2023/06/25 10:31:25;;;;;;;;;;;;;;;;;;5201434;22;19945;-59
2023/06/25 10:33:46;;;;;;;;;;;;;;;;;;5201390;22;20105;-59
2023/06/25 10:36:06;;;;;;;;;;;;;;;;;;5201369;22;20233;-59
2023/06/25 10:38:26;;;;;;;;;;;;;;;;;;5201307;22;20279;-59
2023/06/25 10:40:47;;;;;;;;;;;;;;;;;;5201258;22;19976;-59
2023/06/25 10:43:07;;;;;;;;;;;;;;;;;;5201073;22;19957;-59
2023/06/25 10:45:27;;;;;;;;;;;;;;;;;;5201365;22;20118;-59
2023/06/25 10:47:48;;;;;;;;;;;;;;;;;;5201703;22;19934;-58
2023/06/25 10:50:08;;;;;;;;;;;;;;;;;;5201206;22;20105;-58
2023/06/25 10:52:29;;;;;;;;;;;;;;;;;;5201242;22;19946;-58
2023/06/25 10:54:49;;;;;;;;;;;;;;;;;;5201298;22;19969;-58
2023/06/25 10:57:09;;;;;;;;;;;;;;;;;;5201195;22;19957;-59
2023/06/25 10:59:30;;;;;;;;;;;;;;;;;;5201250;22;19941;-58
2023/06/25 11:01:50;;;;;;;;;;;;;;;;;;5201283;22;19921;-59
2023/06/25 11:04:10;;;;;;;;;;;;;;;;;;5201319;22;19954;-59
2023/06/25 11:06:30;;;;;;;;;;;;;;;;;;5201099;22;19957;-58
2023/06/25 11:08:50;;;;;;;;;;;;;;;;;;5201336;22;19919;-57
2023/06/25 11:11:11;;;;;;;;;;;;;;;;;;5201319;22;19925;-58
2023/06/25 11:13:31;;;;;;;;;;;;;;;;;;5201263;22;19926;-59
2023/06/25 11:15:51;;;;;;;;;;;;;;;;;;5201218;22;19957;-58
2023/06/25 11:18:11;;;;;;;;;;;;;;;;;;5201311;22;19918;-58
2023/06/25 11:20:33;;;;;;;;;;;;;;;;;;5201129;22;19917;-58
2023/06/25 11:22:53;;;;;;;;;;;;;;;;;;5201124;22;19953;-58
2023/06/25 11:25:13;;;;;;;;;;;;;;;;;;5201201;22;20158;-58
2023/06/25 11:27:34;;;;;;;;;;;;;;;;;;5201325;22;20175;-58
2023/06/25 11:29:57;;;;;;;;;;;;;;;;;;5200967;22;19917;-58
2023/06/25 11:32:18;;;;;;;;;;;;;;;;;;5201174;22;19961;-58
2023/06/25 11:34:38;;;;;;;;;;;;;;;;;;5201077;22;20354;-58
2023/06/25 11:36:59;;;;;;;;;;;;;;;;;;5200972;22;19976;-58
2023/06/25 11:39:20;;;;;;;;;;;;;;;;;;5200976;22;20165;-59
2023/06/25 11:41:40;;;;;;;;;;;;;;;;;;5200980;22;19918;-58
2023/06/25 11:44:00;;;;;;;;;;;;;;;;;;5200909;22;19926;-58
2023/06/25 11:46:21;;;;;;;;;;;;;;;;;;5200853;22;19941;-58
2023/06/25 11:48:41;;;;;;;;;;;;;;;;;;5200869;22;20260;-58
2023/06/25 11:51:01;;;;;;;;;;;;;;;;;;5201006;22;19942;-58
2023/06/25 11:53:21;;;;;;;;;;;;;;;;;;5200881;22;19919;-58
2023/06/25 11:55:41;;;;;;;;;;;;;;;;;;5202067;22;19930;-58
2023/06/25 11:58:02;;;;;;;;;;;;;;;;;;5202012;22;19918;-57
2023/06/25 12:00:22;;;;;;;;;;;;;;;;;;5201853;22;20200;-58
2023/06/25 12:02:42;;;;;;;;;;;;;;;;;;5201954;22;20180;-59
2023/06/25 12:05:09;;;;;;;;;;;;;;;;;;5210559;22;19975;-59
2023/06/25 12:07:29;;;;;;;;;;;;;;;;;;5201987;22;19919;-58
2023/06/25 12:09:49;;;;;;;;;;;;;;;;;;5201865;22;20429;-58
2023/06/25 12:12:10;;;;;;;;;;;;;;;;;;5201998;22;19918;-58
2023/06/25 12:14:30;;;;;;;;;;;;;;;;;;5201923;22;19918;-59
2023/06/25 12:16:51;;;;;;;;;;;;;;;;;;5201857;22;19918;-59
2023/06/25 12:19:11;;;;;;;;;;;;;;;;;;5202027;22;19925;-58
2023/06/25 12:21:31;;;;;;;;;;;;;;;;;;5201916;22;19917;-57
2023/06/25 12:23:52;;;;;;;;;;;;;;;;;;5201793;22;19934;-59
2023/06/25 12:26:12;;;;;;;;;;;;;;;;;;5201945;22;20221;-58
2023/06/25 12:28:32;;;;;;;;;;;;;;;;;;5201855;22;19918;-58
2023/06/25 12:30:53;;;;;;;;;;;;;;;;;;5201782;22;19946;-59
2023/06/25 12:33:13;;;;;;;;;;;;;;;;;;5201797;22;19918;-58
2023/06/25 12:35:33;;;;;;;;;;;;;;;;;;5201930;22;19918;-58
2023/06/25 12:37:54;;;;;;;;;;;;;;;;;;5201837;22;20017;-58
2023/06/25 12:40:14;;;;;;;;;;;;;;;;;;5201737;22;19986;-59
2023/06/25 12:42:34;;;;;;;;;;;;;;;;;;5201936;22;19949;-59
2023/06/25 12:44:54;;;;;;;;;;;;;;;;;;5201948;22;19941;-59
2023/06/25 12:47:15;;;;;;;;;;;;;;;;;;5201798;22;19918;-58
2023/06/25 12:49:35;;;;;;;;;;;;;;;;;;5201775;22;19961;-59
2023/06/25 12:51:55;;;;;;;;;;;;;;;;;;5201836;22;19917;-58
2023/06/25 12:54:15;;;;;;;;;;;;;;;;;;5201783;22;19949;-58
2023/06/25 12:56:36;;;;;;;;;;;;;;;;;;5201753;22;19918;-58
2023/06/25 12:58:56;;;;;;;;;;;;;;;;;;5201737;22;20271;-58
2023/06/25 13:01:16;;;;;;;;;;;;;;;;;;5201990;22;19934;-59
2023/06/25 13:03:36;;;;;;;;;;;;;;;;;;5201794;22;19919;-58
2023/06/25 13:05:56;;;;;;;;;;;;;;;;;;5201711;22;20252;-58
2023/06/25 13:08:17;;;;;;;;;;;;;;;;;;5201780;22;19973;-58
2023/06/25 13:10:37;;;;;;;;;;;;;;;;;;5201724;22;19969;-58
2023/06/25 13:12:57;;;;;;;;;;;;;;;;;;5201708;22;19945;-58
2023/06/25 13:15:17;;;;;;;;;;;;;;;;;;5201719;22;19918;-59
2023/06/25 13:17:38;;;;;;;;;;;;;;;;;;5201708;22;20144;-59
2023/06/25 13:19:58;;;;;;;;;;;;;;;;;;5201844;22;19918;-58
2023/06/25 13:22:18;;;;;;;;;;;;;;;;;;5178938;22;20234;-58
2023/06/25 13:24:39;;;;;;;;;;;;;;;;;;5201640;22;19938;-58
2023/06/25 13:27:01;;;;;;;;;;;;;;;;;;5201885;22;20287;-59
2023/06/25 13:29:21;;;;;;;;;;;;;;;;;;5201929;22;19918;-58
2023/06/25 13:31:41;;;;;;;;;;;;;;;;;;5201586;22;19969;-58
2023/06/25 13:34:02;;;;;;;;;;;;;;;;;;5201657;22;19961;-59
2023/06/25 13:36:22;;;;;;;;;;;;;;;;;;5201696;22;20164;-58
2023/06/25 13:38:42;;;;;;;;;;;;;;;;;;5201663;22;19987;-59
2023/06/25 13:41:02;;;;;;;;;;;;;;;;;;5201500;22;20162;-58
2023/06/25 13:43:22;;;;;;;;;;;;;;;;;;5201611;22;19965;-58
2023/06/25 13:45:43;;;;;;;;;;;;;;;;;;5201621;22;19956;-59
2023/06/25 13:48:03;;;;;;;;;;;;;;;;;;5201568;22;19918;-59
2023/06/25 13:50:23;;;;;;;;;;;;;;;;;;5201560;22;19942;-58
2023/06/25 13:52:44;;;;;;;;;;;;;;;;;;5201608;22;19957;-58
2023/06/25 13:55:04;;;;;;;;;;;;;;;;;;5201534;22;19922;-58
2023/06/25 13:57:24;;;;;;;;;;;;;;;;;;5201633;22;19933;-59
2023/06/25 13:59:44;;;;;;;;;;;;;;;;;;5201588;22;19949;-59
2023/06/25 14:02:05;;;;;;;;;;;;;;;;;;5201509;22;20243;-58
2023/06/25 14:04:25;;;;;;;;;;;;;;;;;;5201527;22;19966;-59
2023/06/25 14:06:45;;;;;;;;;;;;;;;;;;5201609;22;19919;-58
2023/06/25 14:09:06;;;;;;;;;;;;;;;;;;5201315;22;19967;-58
2023/06/25 14:11:26;;;;;;;;;;;;;;;;;;5201473;22;19918;-58
2023/06/25 14:13:46;;;;;;;;;;;;;;;;;;5201613;22;19926;-58
2023/06/25 14:16:06;;;;;;;;;;;;;;;;;;5201239;22;19949;-58
2023/06/25 14:18:35;;;;;;;;;;;;;;;;;;5201401;22;20006;-58
2023/06/25 14:20:55;;;;;;;;;;;;;;;;;;5201513;22;19926;-59
2023/06/25 14:23:16;;;;;;;;;;;;;;;;;;5201433;22;19926;-59
2023/06/25 14:25:36;;;;;;;;;;;;;;;;;;5201363;22;19933;-59
2023/06/25 14:27:57;;;;;;;;;;;;;;;;;;5201435;22;20029;-58
2023/06/25 14:30:18;;;;;;;;;;;;;;;;;;5201510;22;19919;-59
2023/06/25 14:32:38;;;;;;;;;;;;;;;;;;5201440;22;20236;-58
2023/06/25 14:34:58;;;;;;;;;;;;;;;;;;5201476;22;19917;-59
2023/06/25 14:37:18;;;;;;;;;;;;;;;;;;5201493;22;19942;-59
2023/06/25 14:39:39;;;;;;;;;;;;;;;;;;5201313;22;19975;-58
2023/06/25 14:41:59;;;;;;;;;;;;;;;;;;5201372;22;20272;-58
2023/06/25 14:44:19;;;;;;;;;;;;;;;;;;5178673;22;19917;-58
2023/06/25 14:46:39;;;;;;;;;;;;;;;;;;5201360;22;19966;-58
2023/06/25 14:49:00;;;;;;;;;;;;;;;;;;5201212;22;19921;-58
2023/06/25 14:51:20;;;;;;;;;;;;;;;;;;5201432;22;19977;-58
2023/06/25 14:53:40;;;;;;;;;;;;;;;;;;5201318;22;19925;-59
2023/06/25 14:56:00;;;;;;;;;;;;;;;;;;5201269;22;19917;-58
2023/06/25 14:58:21;;;;;;;;;;;;;;;;;;5201327;22;19953;-58
2023/06/25 15:00:41;;;;;;;;;;;;;;;;;;5201422;22;19918;-58
2023/06/25 15:03:02;;;;;;;;;;;;;;;;;;5201286;22;19957;-59
2023/06/25 15:05:22;;;;;;;;;;;;;;;;;;5200769;22;19949;-59
2023/06/25 15:07:42;;;;;;;;;;;;;;;;;;5201338;22;19917;-58
2023/06/25 15:10:03;;;;;;;;;;;;;;;;;;5201182;22;19941;-58
2023/06/25 15:12:23;;;;;;;;;;;;;;;;;;5201280;22;20126;-58
2023/06/25 15:14:44;;;;;;;;;;;;;;;;;;5201267;22;19915;-57
2023/06/25 15:17:05;;;;;;;;;;;;;;;;;;5201145;22;19918;-57
2023/06/25 15:19:25;;;;;;;;;;;;;;;;;;5201047;22;19933;-57
2023/06/25 15:21:46;;;;;;;;;;;;;;;;;;5201085;22;20126;-57
2023/06/25 15:24:06;;;;;;;;;;;;;;;;;;5201215;22;19956;-57
2023/06/25 15:26:26;;;;;;;;;;;;;;;;;;5200997;22;20217;-57
2023/06/25 15:28:47;;;;;;;;;;;;;;;;;;5209600;22;20110;-57
2023/06/25 15:31:07;;;;;;;;;;;;;;;;;;5202176;22;19963;-57
2023/06/25 15:33:28;;;;;;;;;;;;;;;;;;5201917;22;19954;-57
2023/06/25 15:35:48;;;;;;;;;;;;;;;;;;5202091;22;19918;-57
2023/06/25 15:38:09;;;;;;;;;;;;;;;;;;5202162;22;19918;-57
2023/06/25 15:40:29;;;;;;;;;;;;;;;;;;5202004;22;20229;-57
2023/06/25 15:42:49;;;;;;;;;;;;;;;;;;5202075;22;19934;-56
2023/06/25 15:45:09;;;;;;;;;;;;;;;;;;5202115;22;19946;-57
2023/06/25 15:47:30;;;;;;;;;;;;;;;;;;5202059;22;19926;-57
2023/06/25 15:49:50;;;;;;;;;;;;;;;;;;5201886;22;19934;-57
2023/06/25 15:52:10;;;;;;;;;;;;;;;;;;5202005;22;20162;-57
2023/06/25 15:54:31;;;;;;;;;;;;;;;;;;5201958;22;19918;-57
2023/06/25 15:56:51;;;;;;;;;;;;;;;;;;5201850;22;19926;-57
2023/06/25 15:59:11;;;;;;;;;;;;;;;;;;5202038;22;19918;-57